createdAt,value
2019-01-19T00:00:36.465Z,75.10
2019-01-19T00:03:28.230Z,74.84
2019-01-19T00:06:26.591Z,74.82
2019-01-19T00:09:13.298Z,75.04
2019-01-19T00:12:12.624Z,74.75
2019-01-19T00:15:05.718Z,74.73
2019-01-19T00:18:33.854Z,74.36
2019-01-19T00:21:30.805Z,74.55
2019-01-19T00:24:12.742Z,74.74
2019-01-19T00:27:22.313Z,74.17
2019-01-19T00:30:14.224Z,74.26
2019-01-19T00:33:32.090Z,74.18
2019-01-19T00:36:24.303Z,74.16
2019-01-19T00:39:30.271Z,73.51
2019-01-19T00:42:44.554Z,73.62
2019-01-19T00:45:41.281Z,74.12
2019-01-19T00:48:36.393Z,73.87
2019-01-19T00:51:47.102Z,73.70
2019-01-19T00:54:23.970Z,74.06
2019-01-19T00:57:24.027Z,73.33
2019-01-19T00:59:57.799Z,73.24
2019-01-19T01:02:51.828Z,73.19
2019-01-19T01:05:38.515Z,73.42
2019-01-19T01:08:49.850Z,73.56
2019-01-19T01:11:50.304Z,73.38
2019-01-19T01:14:54.768Z,73.73
2019-01-19T01:17:40.551Z,73.70
2019-01-19T01:20:48.304Z,73.83
2019-01-19T01:23:50.348Z,74.17
2019-01-19T01:27:24.594Z,73.59
2019-01-19T01:30:49.113Z,73.33
2019-01-19T01:33:40.376Z,73.67
2019-01-19T01:36:29.126Z,74.01
2019-01-19T01:39:57.051Z,73.87
2019-01-19T01:42:53.214Z,73.62
2019-01-19T01:45:38.541Z,73.90
2019-01-19T01:48:45.006Z,73.91
2019-01-19T01:51:35.974Z,74.10
2019-01-19T01:54:36.813Z,74.29
2019-01-19T01:57:22.611Z,74.23
2019-01-19T02:00:31.803Z,74.47
2019-01-19T02:03:43.582Z,73.35
2019-01-19T02:06:55.702Z,73.27
2019-01-19T02:09:51.747Z,73.05
2019-01-19T02:12:51.969Z,73.04
2019-01-19T02:15:40.529Z,73.30
2019-01-19T02:18:19.213Z,73.28
2019-01-19T02:21:24.768Z,72.85
2019-01-19T02:24:29.962Z,72.65
2019-01-19T02:27:23.631Z,72.63
2019-01-19T02:30:34.112Z,72.60
2019-01-19T02:33:30.139Z,72.32
2019-01-19T02:36:15.625Z,71.89
2019-01-19T02:38:55.100Z,72.11
2019-01-19T02:42:11.168Z,72.21
2019-01-19T02:45:08.282Z,72.49
2019-01-19T02:48:04.105Z,72.49
2019-01-19T02:50:50.799Z,72.34
2019-01-19T02:53:46.985Z,72.45
2019-01-19T02:56:39.923Z,72.75
2019-01-19T03:00:01.686Z,72.47
2019-01-19T03:02:54.170Z,71.78
2019-01-19T03:05:36.246Z,71.47
2019-01-19T03:09:04.313Z,70.67
2019-01-19T03:12:14.020Z,70.44
2019-01-19T03:15:16.140Z,70.19
2019-01-19T03:18:37.899Z,70.18
2019-01-19T03:21:42.512Z,69.57
2019-01-19T03:24:38.475Z,70.06
2019-01-19T03:27:52.787Z,70.31
2019-01-19T03:31:01.349Z,70.51
2019-01-19T03:34:05.563Z,70.33
2019-01-19T03:37:03.676Z,69.90
2019-01-19T03:39:57.914Z,69.28
2019-01-19T03:43:17.335Z,69.18
2019-01-19T03:46:20.024Z,68.62
2019-01-19T03:49:38.798Z,68.68
2019-01-19T03:52:30.473Z,68.77
2019-01-19T03:55:16.853Z,68.99
2019-01-19T03:58:10.929Z,68.97
2019-01-19T04:00:59.777Z,69.49
2019-01-19T04:03:47.502Z,68.55
2019-01-19T04:06:52.956Z,68.94
2019-01-19T04:10:05.663Z,69.25
2019-01-19T04:13:14.170Z,68.99
2019-01-19T04:16:23.269Z,68.94
2019-01-19T04:19:01.129Z,68.56
2019-01-19T04:22:02.330Z,68.36
2019-01-19T04:24:59.753Z,68.53
2019-01-19T04:27:28.707Z,68.38
2019-01-19T04:29:57.651Z,68.46
2019-01-19T04:32:26.726Z,68.59
2019-01-19T04:34:55.691Z,68.98
2019-01-19T04:37:24.541Z,69.15
2019-01-19T04:39:53.370Z,69.10
2019-01-19T04:42:22.404Z,69.31
2019-01-19T04:44:51.267Z,69.10
2019-01-19T04:47:20.225Z,68.95
2019-01-19T04:49:49.120Z,69.08
2019-01-19T04:52:17.922Z,69.25
2019-01-19T04:54:48.405Z,69.29
2019-01-19T04:57:17.286Z,69.10
2019-01-19T04:59:46.173Z,69.20
2019-01-19T05:02:15.015Z,68.88
2019-01-19T05:04:43.883Z,68.46
2019-01-19T05:07:12.652Z,68.83
2019-01-19T05:09:41.536Z,69.08
2019-01-19T05:12:10.413Z,69.26
2019-01-19T05:14:39.282Z,69.42
2019-01-19T05:17:08.062Z,70.18
2019-01-19T05:19:37.006Z,70.62
2019-01-19T05:22:05.860Z,70.80
2019-01-19T05:24:34.810Z,70.89
2019-01-19T05:27:03.708Z,70.86
2019-01-19T05:29:32.557Z,70.70
2019-01-19T05:32:01.488Z,70.38
2019-01-19T05:34:30.375Z,69.84
2019-01-19T05:36:59.221Z,70.07
2019-01-19T05:39:28.085Z,69.87
2019-01-19T05:41:56.956Z,68.82
2019-01-19T05:44:25.727Z,69.11
2019-01-19T05:46:54.601Z,69.22
2019-01-19T05:49:23.526Z,68.80
2019-01-19T05:51:52.582Z,68.72
2019-01-19T05:54:21.510Z,68.54
2019-01-19T05:56:50.479Z,69.17
2019-01-19T05:59:19.355Z,69.28
2019-01-19T06:01:48.198Z,69.30
2019-01-19T06:04:17.122Z,69.13
2019-01-19T06:06:46.994Z,68.17
2019-01-19T06:09:16.196Z,67.68
2019-01-19T06:11:45.063Z,67.59
2019-01-19T06:14:14.029Z,67.65
2019-01-19T06:16:43.000Z,67.85
2019-01-19T06:19:12.274Z,67.35
2019-01-19T06:22:00.161Z,67.88
2019-01-19T06:24:29.049Z,68.03
2019-01-19T06:26:57.966Z,68.21
2019-01-19T06:29:26.870Z,68.20
2019-01-19T06:31:55.826Z,68.46
2019-01-19T06:34:24.619Z,68.78
2019-01-19T06:36:55.002Z,68.91
2019-01-19T06:39:24.145Z,69.12
2019-01-19T06:41:53.030Z,69.38
2019-01-19T06:44:21.944Z,69.72
2019-01-19T06:46:50.850Z,70.10
2019-01-19T06:49:19.708Z,70.59
2019-01-19T06:51:48.590Z,70.51
2019-01-19T06:54:17.772Z,70.61
2019-01-19T06:56:46.532Z,70.47
2019-01-19T06:59:17.449Z,70.49
2019-01-19T07:01:46.072Z,70.60
2019-01-19T07:04:14.914Z,70.64
2019-01-19T07:06:43.827Z,70.63
2019-01-19T07:09:12.747Z,71.01
2019-01-19T07:11:41.677Z,71.06
2019-01-19T07:14:10.625Z,71.15
2019-01-19T07:16:39.469Z,71.75
2019-01-19T07:19:08.473Z,71.94
2019-01-19T07:21:37.350Z,71.76
2019-01-19T07:24:06.266Z,71.47
2019-01-19T07:26:35.226Z,71.62
2019-01-19T07:29:04.198Z,71.80
2019-01-19T07:31:33.194Z,72.09
2019-01-19T07:34:02.186Z,72.41
2019-01-19T07:36:31.090Z,72.53
2019-01-19T07:39:00.102Z,72.57
2019-01-19T07:41:29.026Z,72.69
2019-01-19T07:43:57.912Z,72.69
2019-01-19T07:46:27.385Z,72.79
2019-01-19T07:48:56.312Z,72.94
2019-01-19T07:51:25.752Z,73.11
2019-01-19T07:53:54.645Z,73.18
2019-01-19T07:56:24.891Z,73.17
2019-01-19T07:58:53.778Z,73.06
2019-01-19T08:01:22.694Z,72.64
2019-01-19T08:03:51.662Z,71.40
2019-01-19T08:06:20.534Z,71.85
2019-01-19T08:08:49.335Z,72.58
2019-01-19T08:11:18.280Z,72.68
2019-01-19T08:13:47.128Z,72.24
2019-01-19T08:16:15.998Z,72.26
2019-01-19T08:18:44.927Z,72.86
2019-01-19T08:21:13.819Z,73.67
2019-01-19T08:23:42.724Z,73.71
2019-01-19T08:26:11.640Z,73.89
2019-01-19T08:28:40.538Z,73.95
2019-01-19T08:31:09.386Z,73.60
2019-01-19T08:33:38.275Z,73.39
2019-01-19T08:36:07.198Z,73.07
2019-01-19T08:38:36.152Z,72.94
2019-01-19T08:41:05.200Z,72.82
2019-01-19T08:43:54.920Z,72.61
2019-01-19T08:46:23.851Z,72.36
2019-01-19T08:48:52.833Z,72.41
2019-01-19T08:51:21.710Z,72.33
2019-01-19T08:53:50.718Z,72.27
2019-01-19T08:56:19.694Z,72.30
2019-01-19T08:58:48.675Z,72.12
2019-01-19T09:01:17.590Z,71.15
2019-01-19T09:03:46.403Z,70.69
2019-01-19T09:06:15.393Z,70.06
2019-01-19T09:08:44.254Z,70.43
2019-01-19T09:11:13.243Z,70.93
2019-01-19T09:13:42.136Z,71.29
2019-01-19T09:16:13.299Z,71.90
2019-01-19T09:18:42.201Z,72.15
2019-01-19T09:21:11.166Z,72.37
2019-01-19T09:23:46.491Z,72.47
2019-01-19T09:26:15.415Z,72.31
2019-01-19T09:28:44.390Z,71.70
2019-01-19T09:31:13.290Z,71.40
2019-01-19T09:33:42.397Z,71.24
2019-01-19T09:36:11.482Z,71.28
2019-01-19T09:38:40.369Z,71.25
2019-01-19T09:41:09.259Z,71.00
2019-01-19T09:43:38.207Z,71.27
2019-01-19T09:46:07.206Z,71.05
2019-01-19T09:48:36.159Z,71.26
2019-01-19T09:51:05.311Z,71.53
2019-01-19T09:56:02.238Z,71.86
2019-01-19T09:58:31.877Z,71.42
2019-01-19T10:01:00.848Z,71.69
2019-01-19T10:03:29.770Z,71.03
2019-01-19T10:05:58.716Z,71.27
2019-01-19T10:08:27.689Z,71.02
2019-01-19T10:10:56.927Z,70.79
2019-01-19T10:13:25.854Z,70.80
2019-01-19T10:15:54.783Z,70.98
2019-01-19T10:18:24.083Z,69.96
2019-01-19T10:20:52.989Z,69.69
2019-01-19T10:23:21.947Z,69.54
2019-01-19T10:25:50.915Z,69.77
2019-01-19T10:28:19.837Z,69.21
2019-01-19T10:30:48.789Z,69.18
2019-01-19T10:33:19.299Z,67.78
2019-01-19T10:35:48.291Z,68.19
2019-01-19T10:38:17.175Z,67.26
2019-01-19T10:40:46.168Z,67.40
2019-01-19T10:43:15.109Z,67.13
2019-01-19T10:45:44.345Z,67.32
2019-01-19T10:48:13.319Z,67.18
2019-01-19T10:50:42.255Z,67.46
2019-01-19T10:53:11.268Z,67.42
2019-01-19T10:55:40.245Z,66.34
2019-01-19T10:58:09.256Z,65.12
2019-01-19T11:00:38.297Z,63.74
2019-01-19T11:03:07.261Z,63.09
2019-01-19T11:05:36.275Z,62.48
2019-01-19T11:08:07.344Z,62.27
2019-01-19T11:10:36.330Z,62.66
2019-01-19T11:13:05.322Z,62.31
2019-01-19T11:15:34.314Z,62.03
2019-01-19T11:18:09.436Z,62.32
2019-01-19T11:20:38.329Z,62.70
2019-01-19T11:23:07.384Z,62.42
2019-01-19T11:25:36.371Z,61.40
2019-01-19T11:28:05.546Z,61.00
2019-01-19T11:30:34.607Z,60.46
2019-01-19T11:33:03.603Z,59.61
2019-01-19T11:35:32.587Z,59.72
2019-01-19T11:38:03.224Z,59.78
2019-01-19T11:40:37.154Z,59.24
2019-01-19T11:43:07.474Z,58.81
2019-01-19T11:45:36.604Z,58.88
2019-01-19T11:48:06.311Z,58.84
2019-01-19T11:50:35.321Z,59.17
2019-01-19T11:53:04.425Z,58.16
2019-01-19T11:55:33.428Z,57.52
2019-01-19T11:58:04.019Z,58.20
2019-01-19T12:00:34.657Z,59.96
2019-01-19T12:03:03.753Z,60.98
2019-01-19T12:05:32.635Z,60.60
2019-01-19T12:08:02.680Z,60.47
2019-01-19T12:10:31.714Z,60.21
2019-01-19T12:13:00.721Z,59.40
2019-01-19T12:15:29.768Z,58.16
2019-01-19T12:17:58.804Z,57.83
2019-01-19T12:20:39.198Z,59.18
2019-01-19T12:23:08.715Z,56.61
2019-01-19T12:25:38.334Z,57.07
2019-01-19T12:28:07.422Z,56.06
2019-01-19T12:30:36.539Z,54.91
2019-01-19T12:33:05.972Z,56.14
2019-01-19T12:35:35.021Z,56.27
2019-01-19T12:38:04.243Z,56.56
2019-01-19T12:40:33.370Z,56.68
2019-01-19T12:43:05.591Z,56.34
2019-01-19T12:45:40.632Z,56.36
2019-01-19T12:48:09.722Z,56.19
2019-01-19T12:50:39.419Z,56.11
2019-01-19T12:53:08.513Z,56.33
2019-01-19T12:55:38.156Z,55.55
2019-01-19T12:58:08.824Z,55.41
2019-01-19T13:00:38.692Z,56.10
2019-01-19T13:03:08.278Z,55.72
2019-01-19T13:05:40.620Z,56.71
2019-01-19T13:08:11.564Z,56.24
2019-01-19T13:10:54.093Z,56.87
2019-01-19T13:13:27.699Z,57.53
2019-01-19T13:16:23.832Z,57.35
2019-01-19T13:19:35.025Z,57.29
2019-01-19T13:22:48.164Z,56.99
2019-01-19T13:26:04.097Z,56.82
2019-01-19T13:29:08.432Z,57.17
2019-01-19T13:32:04.771Z,57.79
2019-01-19T13:35:35.652Z,57.93
2019-01-19T13:38:47.520Z,58.08
2019-01-19T13:42:05.549Z,59.01
2019-01-19T13:45:00.289Z,59.48
2019-01-19T13:48:06.323Z,59.11
2019-01-19T13:51:02.241Z,59.92
2019-01-19T13:53:52.300Z,60.17
2019-01-19T13:57:17.693Z,59.78
2019-01-19T14:00:26.375Z,60.60
2019-01-19T14:03:29.120Z,60.90
2019-01-19T14:06:20.583Z,61.25
2019-01-19T14:09:45.544Z,61.18
2019-01-19T14:12:59.699Z,61.84
2019-01-19T14:16:08.826Z,62.08
2019-01-19T14:19:13.984Z,61.88
2019-01-19T14:22:27.244Z,62.91
2019-01-19T14:25:40.702Z,63.83
2019-01-19T14:28:41.432Z,64.00
2019-01-19T14:31:52.885Z,63.32
2019-01-19T14:34:56.445Z,63.26
2019-01-19T14:37:57.670Z,63.56
2019-01-19T14:41:13.388Z,64.30
2019-01-19T14:44:25.852Z,64.28
2019-01-19T14:47:44.882Z,64.91
2019-01-19T14:50:38.754Z,64.91
2019-01-19T14:53:32.205Z,64.38
2019-01-19T14:56:46.810Z,64.67
2019-01-19T14:59:46.762Z,64.67
2019-01-19T15:03:00.131Z,64.52
2019-01-19T15:06:00.477Z,63.94
2019-01-19T15:09:28.717Z,63.52
2019-01-19T15:12:22.582Z,63.82
2019-01-19T15:15:00.832Z,64.40
2019-01-19T15:18:05.556Z,64.45
2019-01-19T15:20:44.926Z,64.52
2019-01-19T15:23:38.459Z,64.87
2019-01-19T15:26:33.530Z,64.39
2019-01-19T15:29:24.296Z,64.41
2019-01-19T15:32:24.151Z,64.49
2019-01-19T15:35:28.490Z,64.64
2019-01-19T15:38:36.376Z,65.42
2019-01-19T15:41:50.443Z,65.73
2019-01-19T15:44:57.781Z,65.97
2019-01-19T15:48:02.569Z,66.12
2019-01-19T15:51:04.196Z,66.27
2019-01-19T15:54:09.524Z,65.92
2019-01-19T15:56:55.330Z,66.02
2019-01-19T16:00:14.212Z,65.82
2019-01-19T16:03:20.543Z,65.77
2019-01-19T16:06:33.517Z,65.68
2019-01-19T16:09:26.456Z,65.95
2019-01-19T16:12:35.733Z,66.41
2019-01-19T16:15:42.186Z,66.73
2019-01-19T16:18:56.433Z,66.35
2019-01-19T16:21:48.080Z,66.19
2019-01-19T16:24:23.426Z,65.71
2019-01-19T16:27:29.268Z,65.58
2019-01-19T16:30:30.755Z,65.64
2019-01-19T16:33:21.614Z,65.31
2019-01-19T16:35:57.935Z,65.38
2019-01-19T16:39:26.121Z,65.65
2019-01-19T16:42:12.548Z,65.86
2019-01-19T16:45:20.958Z,65.83
2019-01-19T16:48:25.752Z,66.10
2019-01-19T16:51:30.650Z,66.25
2019-01-19T16:54:25.313Z,66.54
2019-01-19T16:57:22.279Z,66.37
2019-01-19T17:00:27.825Z,66.72
2019-01-19T17:03:38.652Z,66.99
2019-01-19T17:06:23.615Z,66.98
2019-01-19T17:09:33.102Z,67.06
2019-01-19T17:12:53.788Z,67.06
2019-01-19T17:15:41.471Z,66.97
2019-01-19T17:18:34.868Z,66.81
2019-01-19T17:21:55.969Z,67.30
2019-01-19T17:25:13.835Z,67.34
2019-01-19T17:28:24.122Z,67.89
2019-01-19T17:31:36.071Z,67.41
2019-01-19T17:34:29.646Z,67.70
2019-01-19T17:37:20.093Z,68.03
2019-01-19T17:40:29.430Z,68.10
2019-01-19T17:43:33.503Z,68.55
2019-01-19T17:46:52.608Z,68.52
2019-01-19T17:49:52.828Z,68.49
2019-01-19T17:53:11.857Z,68.18
2019-01-19T17:56:22.956Z,68.31
2019-01-19T17:59:14.160Z,68.15
2019-01-19T18:02:22.921Z,68.21
2019-01-19T18:05:13.508Z,68.38
2019-01-19T18:08:32.473Z,68.95
2019-01-19T18:11:50.263Z,68.74
2019-01-19T18:14:55.757Z,68.60
2019-01-19T18:18:09.854Z,68.68
2019-01-19T18:21:16.569Z,69.45
2019-01-19T18:24:33.200Z,69.33
2019-01-19T18:27:32.002Z,69.30
2019-01-19T18:30:40.864Z,69.31
2019-01-19T18:33:36.373Z,69.61
2019-01-19T18:36:30.006Z,69.39
2019-01-19T18:39:24.896Z,69.57
2019-01-19T18:42:41.386Z,69.69
2019-01-19T18:45:57.897Z,69.83
2019-01-19T18:49:06.886Z,69.74
2019-01-19T18:52:21.989Z,69.77
2019-01-19T18:55:34.849Z,69.51
2019-01-19T18:58:34.294Z,69.71
2019-01-19T19:01:31.292Z,69.79
2019-01-19T19:04:24.979Z,69.94
2019-01-19T19:07:27.925Z,70.13
2019-01-19T19:10:18.861Z,70.02
2019-01-19T19:13:13.493Z,70.49
2019-01-19T19:16:01.389Z,70.16
2019-01-19T19:19:05.871Z,70.75
2019-01-19T19:22:07.041Z,71.12
2019-01-19T19:25:13.450Z,71.12
2019-01-19T19:27:57.013Z,71.10
2019-01-19T19:31:04.795Z,70.90
2019-01-19T19:33:58.630Z,70.82
2019-01-19T19:36:50.849Z,71.25
2019-01-19T19:39:37.023Z,71.18
2019-01-19T19:42:35.263Z,71.17
2019-01-19T19:45:35.878Z,71.20
2019-01-19T19:48:14.215Z,71.42
2019-01-19T19:51:25.936Z,71.04
2019-01-19T19:53:54.907Z,71.24
2019-01-19T19:56:22.391Z,71.67
2019-01-19T19:58:51.394Z,71.72
2019-01-19T20:01:20.451Z,71.75
2019-01-19T20:03:49.509Z,71.81
2019-01-19T20:06:18.456Z,71.84
2019-01-19T20:08:47.553Z,72.07
2019-01-19T20:11:17.550Z,72.15
2019-01-19T20:13:46.644Z,72.00
2019-01-19T20:16:15.640Z,72.10
2019-01-19T20:18:44.617Z,72.15
2019-01-19T20:21:13.653Z,71.62
2019-01-19T20:23:42.608Z,71.77
2019-01-19T20:26:11.679Z,72.05
2019-01-19T20:28:40.731Z,71.94
2019-01-19T20:31:09.756Z,72.06
2019-01-19T20:33:38.767Z,71.97
2019-01-19T20:36:07.698Z,72.11
2019-01-19T20:38:36.635Z,72.63
2019-01-19T20:41:05.651Z,72.50
2019-01-19T20:43:34.696Z,72.35
2019-01-19T20:46:03.683Z,72.42
2019-01-19T20:48:32.727Z,72.14
2019-01-19T20:51:01.683Z,71.97
2019-01-19T20:53:30.711Z,71.68
2019-01-19T20:55:59.632Z,72.15
2019-01-19T20:58:28.621Z,72.60
2019-01-19T21:00:57.682Z,72.63
2019-01-19T21:03:26.611Z,72.87
2019-01-19T21:05:55.646Z,72.84
2019-01-19T21:08:24.607Z,73.01
2019-01-19T21:10:53.612Z,73.65
2019-01-19T21:13:22.611Z,73.55
2019-01-19T21:15:51.593Z,73.49
2019-01-19T21:18:20.604Z,73.56
2019-01-19T21:20:49.552Z,73.24
2019-01-19T21:23:18.514Z,73.83
2019-01-19T21:25:47.588Z,74.12
2019-01-19T21:28:16.609Z,74.21
2019-01-19T21:30:45.692Z,74.25
2019-01-19T21:33:14.871Z,74.71
2019-01-19T21:35:43.914Z,74.70
2019-01-19T21:38:12.963Z,74.87
2019-01-19T21:40:41.880Z,74.77
2019-01-19T21:43:10.720Z,74.54
2019-01-19T21:45:39.819Z,74.55
2019-01-19T21:48:08.808Z,74.40
2019-01-19T21:50:37.893Z,74.47
2019-01-19T21:53:07.124Z,74.59
2019-01-19T21:55:36.084Z,74.48
2019-01-19T21:58:05.408Z,74.07
2019-01-19T22:00:34.384Z,74.11
2019-01-19T22:03:03.440Z,74.29
2019-01-19T22:05:32.666Z,74.84
2019-01-19T22:08:01.676Z,74.78
2019-01-19T22:10:30.696Z,74.32
2019-01-19T22:12:59.810Z,74.14
2019-01-19T22:15:28.761Z,73.72
2019-01-19T22:17:58.155Z,73.77
2019-01-19T22:20:27.158Z,73.56
2019-01-19T22:22:56.129Z,73.56
2019-01-19T22:25:25.118Z,73.48
2019-01-19T22:27:54.137Z,73.43
2019-01-19T22:30:24.664Z,73.26
2019-01-19T22:32:55.462Z,73.45
2019-01-19T22:35:27.119Z,73.65
2019-01-19T22:37:56.056Z,73.81
2019-01-19T22:40:24.965Z,74.16
2019-01-19T22:42:59.163Z,73.96
2019-01-19T22:45:28.072Z,74.09
2019-01-19T22:47:56.964Z,73.80
2019-01-19T22:50:25.967Z,73.78
2019-01-19T22:52:54.971Z,73.90
2019-01-19T22:55:23.919Z,73.90
2019-01-19T22:57:52.962Z,73.98
2019-01-19T23:01:17.570Z,73.79
2019-01-19T23:03:46.604Z,73.86
2019-01-19T23:06:15.658Z,74.78
2019-01-19T23:08:44.692Z,75.01
2019-01-19T23:11:13.754Z,74.91
2019-01-19T23:13:42.877Z,75.47
2019-01-19T23:16:11.942Z,75.99
2019-01-19T23:18:40.878Z,75.49
2019-01-19T23:21:09.827Z,75.58
2019-01-19T23:23:38.799Z,75.45
2019-01-19T23:26:07.893Z,75.74
2019-01-19T23:28:36.898Z,75.62
2019-01-19T23:31:05.871Z,75.46
2019-01-19T23:33:34.928Z,75.39
2019-01-19T23:36:03.934Z,74.94
2019-01-19T23:38:32.911Z,74.68
2019-01-19T23:41:08.688Z,74.64
2019-01-19T23:43:32.598Z,74.65
2019-01-19T23:46:01.576Z,74.89
2019-01-19T23:48:30.607Z,74.97
2019-01-19T23:50:59.562Z,74.58
2019-01-19T23:53:28.589Z,74.78
2019-01-19T23:55:57.555Z,74.61
2019-01-19T23:58:26.483Z,75.19
